createdAt,value
2022-08-28T00:02:10.323Z,4.20
2022-08-28T00:04:38.413Z,4.40
2022-08-28T00:07:06.863Z,4.50
2022-08-28T00:09:36.372Z,4.60
2022-08-28T00:12:06.055Z,4.50
2022-08-28T00:14:34.845Z,4.60
2022-08-28T00:17:04.078Z,4.30
2022-08-28T00:19:36.641Z,4.30
2022-08-28T00:22:07.543Z,4.60
2022-08-28T00:24:36.897Z,4.10
2022-08-28T00:27:23.921Z,4.20
2022-08-28T00:29:52.158Z,4.80
2022-08-28T00:32:23.711Z,4.20
2022-08-28T00:34:52.581Z,4.70
2022-08-28T00:37:20.831Z,4.70
2022-08-28T00:39:53.301Z,4.30
2022-08-28T00:42:21.740Z,4.50
2022-08-28T00:44:49.803Z,4.40
2022-08-28T00:47:18.055Z,4.40
2022-08-28T00:49:51.274Z,4.40
2022-08-28T00:52:21.836Z,4.50
2022-08-28T00:55:18.219Z,4.20
2022-08-28T00:57:53.520Z,4.00
2022-08-28T01:00:41.164Z,4.80
2022-08-28T01:03:09.261Z,4.50
2022-08-28T01:05:40.217Z,4.10
2022-08-28T01:08:08.189Z,5.10
2022-08-28T01:10:36.977Z,4.80
2022-08-28T01:13:05.411Z,4.50
2022-08-28T01:15:37.274Z,4.50
2022-08-28T01:18:09.367Z,4.90
2022-08-28T01:20:47.079Z,4.40
2022-08-28T01:23:37.336Z,4.90
2022-08-28T01:26:06.540Z,4.70
2022-08-28T01:28:41.225Z,4.90
2022-08-28T01:31:12.219Z,4.90
2022-08-28T01:33:42.556Z,4.20
2022-08-28T01:36:12.426Z,4.60
2022-08-28T01:38:43.804Z,4.10
2022-08-28T01:41:14.170Z,4.60
2022-08-28T01:43:43.700Z,4.80
2022-08-28T01:46:12.795Z,4.40
2022-08-28T01:48:43.347Z,4.20
2022-08-28T01:51:12.571Z,4.40
2022-08-28T01:53:42.078Z,4.50
2022-08-28T01:56:15.608Z,5.00
2022-08-28T01:58:44.223Z,4.90
2022-08-28T02:01:15.882Z,4.70
2022-08-28T02:03:43.975Z,5.00
2022-08-28T02:06:13.490Z,4.80
2022-08-28T02:08:42.128Z,5.40
2022-08-28T02:11:11.110Z,4.90
2022-08-28T02:13:40.384Z,4.60
2022-08-28T02:16:11.013Z,5.00
2022-08-28T02:18:39.694Z,4.90
2022-08-28T02:21:09.668Z,5.40
2022-08-28T02:23:41.155Z,5.10
2022-08-28T02:26:10.493Z,4.80
2022-08-28T02:28:38.761Z,4.80
2022-08-28T02:31:09.562Z,5.20
2022-08-28T02:33:43.696Z,4.70
2022-08-28T02:36:13.944Z,4.50
2022-08-28T02:38:43.994Z,4.90
2022-08-28T02:41:13.003Z,5.00
2022-08-28T02:43:41.112Z,4.80
2022-08-28T02:46:09.746Z,5.10
2022-08-28T02:48:39.374Z,5.60
2022-08-28T02:51:11.655Z,5.20
2022-08-28T02:53:41.360Z,5.60
2022-08-28T02:56:10.544Z,5.00
2022-08-28T02:58:39.797Z,4.90
2022-08-28T03:01:11.090Z,5.00
2022-08-28T03:03:41.485Z,5.00
2022-08-28T03:06:12.792Z,5.10
2022-08-28T03:08:42.546Z,5.60
2022-08-28T03:11:12.108Z,4.90
2022-08-28T03:13:40.411Z,4.90
2022-08-28T03:16:08.590Z,5.00
2022-08-28T03:18:37.341Z,5.00
2022-08-28T03:21:05.924Z,4.90
2022-08-28T03:23:34.526Z,5.10
2022-08-28T03:26:12.676Z,5.70
2022-08-28T03:28:47.677Z,5.10
2022-08-28T03:31:19.861Z,5.30
2022-08-28T03:33:48.340Z,5.10
2022-08-28T03:36:21.592Z,5.00
2022-08-28T03:38:51.192Z,4.90
2022-08-28T03:41:24.454Z,5.60
2022-08-28T03:43:52.495Z,5.60
2022-08-28T03:46:23.913Z,5.40
2022-08-28T03:48:54.380Z,5.00
2022-08-28T03:51:29.973Z,5.10
2022-08-28T03:53:59.489Z,5.10
2022-08-28T03:56:29.736Z,5.40
2022-08-28T03:59:01.352Z,5.10
2022-08-28T04:01:29.514Z,5.70
2022-08-28T04:03:57.772Z,5.60
2022-08-28T04:06:27.751Z,5.10
2022-08-28T04:08:59.897Z,5.00
2022-08-28T04:11:29.027Z,5.90
2022-08-28T04:13:58.199Z,5.70
2022-08-28T04:16:26.349Z,5.30
2022-08-28T04:18:54.779Z,5.00
2022-08-28T04:21:24.561Z,5.60
2022-08-28T04:23:53.980Z,5.50
2022-08-28T04:26:25.227Z,5.20
2022-08-28T04:28:55.087Z,5.60
2022-08-28T04:31:32.447Z,5.70
2022-08-28T04:34:02.732Z,5.20
2022-08-28T04:36:31.239Z,4.90
2022-08-28T04:39:00.590Z,4.60
2022-08-28T04:41:29.110Z,5.80
2022-08-28T04:43:58.017Z,5.40
2022-08-28T04:46:26.543Z,5.30
2022-08-28T04:49:00.102Z,6.10
2022-08-28T04:51:28.962Z,5.10
2022-08-28T04:53:58.787Z,5.40
2022-08-28T04:56:26.967Z,5.30
2022-08-28T04:58:55.127Z,4.90
2022-08-28T05:01:24.907Z,5.20
2022-08-28T05:03:59.524Z,5.70
2022-08-28T05:06:29.599Z,5.20
2022-08-28T05:08:59.969Z,5.10
2022-08-28T05:11:33.434Z,5.40
2022-08-28T05:14:13.921Z,5.50
2022-08-28T05:16:47.775Z,6.20
2022-08-28T05:19:18.299Z,5.70
2022-08-28T05:21:48.078Z,6.20
2022-08-28T05:24:16.944Z,6.00
2022-08-28T05:26:48.146Z,5.40
2022-08-28T05:29:17.449Z,6.20
2022-08-28T05:31:46.413Z,5.30
2022-08-28T05:34:15.674Z,6.50
2022-08-28T05:36:44.027Z,6.20
2022-08-28T05:39:12.819Z,5.60
2022-08-28T05:41:44.061Z,5.80
2022-08-28T05:44:16.378Z,5.70
2022-08-28T05:46:48.446Z,5.80
2022-08-28T05:49:19.678Z,5.60
2022-08-28T05:51:49.798Z,6.10
2022-08-28T05:54:18.342Z,5.90
2022-08-28T05:56:47.299Z,6.10
2022-08-28T05:59:16.762Z,5.90
2022-08-28T06:01:49.694Z,5.90
2022-08-28T06:04:23.223Z,5.40
2022-08-28T06:06:52.417Z,5.80
2022-08-28T06:09:28.803Z,5.50
2022-08-28T06:12:01.905Z,5.30
2022-08-28T06:14:32.474Z,5.60
2022-08-28T06:17:01.949Z,5.50
2022-08-28T06:19:33.374Z,5.90
2022-08-28T06:22:07.176Z,6.10
2022-08-28T06:24:36.751Z,5.60
2022-08-28T06:27:04.984Z,5.60
2022-08-28T06:29:33.080Z,5.70
2022-08-28T06:32:04.672Z,5.40
2022-08-28T06:34:33.087Z,6.00
2022-08-28T06:37:01.152Z,5.40
2022-08-28T06:39:29.260Z,5.60
2022-08-28T06:41:57.320Z,5.60
2022-08-28T06:44:25.418Z,5.30
2022-08-28T06:46:54.386Z,5.60
2022-08-28T06:49:22.557Z,5.50
2022-08-28T06:51:50.725Z,5.30
2022-08-28T06:54:23.186Z,5.10
2022-08-28T06:56:52.857Z,5.10
2022-08-28T06:59:21.129Z,5.50
2022-08-28T07:01:49.454Z,5.10
2022-08-28T07:04:17.640Z,5.40
2022-08-28T07:06:47.061Z,5.70
2022-08-28T07:09:15.951Z,5.60
2022-08-28T07:11:46.898Z,5.50
2022-08-28T07:14:14.877Z,5.80
2022-08-28T07:16:44.671Z,5.60
2022-08-28T07:19:13.521Z,5.80
2022-08-28T07:21:44.965Z,5.20
2022-08-28T07:24:15.194Z,5.20
2022-08-28T07:26:45.324Z,5.30
2022-08-28T07:29:14.559Z,5.80
2022-08-28T07:31:47.506Z,5.50
2022-08-28T07:34:17.879Z,5.40
2022-08-28T07:36:46.477Z,6.30
2022-08-28T07:39:16.170Z,5.80
2022-08-28T07:41:46.070Z,6.30
2022-08-28T07:44:34.847Z,5.70
2022-08-28T07:47:05.918Z,5.90
2022-08-28T07:49:35.216Z,6.60
2022-08-28T07:52:05.235Z,6.00
2022-08-28T07:54:36.117Z,5.70
2022-08-28T07:57:05.892Z,6.40
2022-08-28T07:59:36.811Z,6.30
2022-08-28T08:02:06.340Z,6.20
2022-08-28T08:04:34.861Z,6.50
2022-08-28T08:07:05.073Z,6.10
2022-08-28T08:09:38.795Z,5.40
2022-08-28T08:12:10.411Z,6.00
2022-08-28T08:14:39.888Z,6.10
2022-08-28T08:17:09.033Z,5.60
2022-08-28T08:19:37.348Z,5.60
2022-08-28T08:22:06.383Z,5.90
2022-08-28T08:24:35.521Z,5.40
2022-08-28T08:27:03.654Z,4.80
2022-08-28T08:29:36.049Z,5.40
2022-08-28T08:32:08.063Z,5.50
2022-08-28T08:34:49.534Z,5.20
2022-08-28T08:37:17.496Z,4.60
2022-08-28T08:39:45.707Z,5.00
2022-08-28T08:42:28.850Z,5.00
2022-08-28T08:45:00.510Z,4.90
2022-08-28T08:47:31.257Z,4.80
2022-08-28T08:50:09.497Z,4.70
2022-08-28T08:52:40.489Z,4.50
2022-08-28T08:55:37.197Z,4.50
2022-08-28T08:58:14.056Z,4.70
2022-08-28T09:01:00.604Z,4.70
2022-08-28T09:04:11.718Z,4.50
2022-08-28T09:06:48.478Z,4.60
2022-08-28T09:09:35.333Z,3.90
2022-08-28T09:12:20.797Z,4.50
2022-08-28T09:15:09.986Z,4.40
2022-08-28T09:17:43.166Z,4.80
2022-08-28T09:20:15.461Z,4.80
2022-08-28T09:22:46.791Z,4.30
2022-08-28T09:25:52.506Z,3.80
2022-08-28T09:28:25.443Z,4.10
2022-08-28T09:31:31.934Z,4.00
2022-08-28T09:34:38.803Z,3.90
2022-08-28T09:37:08.612Z,4.00
2022-08-28T09:39:37.761Z,4.20
2022-08-28T09:42:27.482Z,3.90
2022-08-28T09:44:57.252Z,4.30
2022-08-28T09:47:46.279Z,4.00
2022-08-28T09:50:19.019Z,4.10
2022-08-28T09:52:47.631Z,3.80
2022-08-28T09:55:25.933Z,3.90
2022-08-28T09:57:54.931Z,4.30
2022-08-28T10:00:23.184Z,4.50
2022-08-28T10:02:58.405Z,4.20
2022-08-28T10:05:41.732Z,3.70
2022-08-28T10:08:27.736Z,4.40
2022-08-28T10:11:05.351Z,4.00
2022-08-28T10:13:43.143Z,4.20
2022-08-28T10:16:24.752Z,3.50
2022-08-28T10:19:10.246Z,3.60
2022-08-28T10:22:19.198Z,3.50
2022-08-28T10:24:54.810Z,5.20
2022-08-28T10:27:56.612Z,3.80
2022-08-28T10:30:25.392Z,4.10
2022-08-28T10:33:18.469Z,4.20
2022-08-28T10:36:01.700Z,3.80
2022-08-28T10:38:53.021Z,3.90
2022-08-28T10:41:27.297Z,3.80
2022-08-28T10:43:57.481Z,3.60
2022-08-28T10:46:42.641Z,3.90
2022-08-28T10:49:35.404Z,4.00
2022-08-28T10:52:11.637Z,3.90
2022-08-28T10:55:01.707Z,3.80
2022-08-28T10:57:45.205Z,4.00
2022-08-28T11:00:18.225Z,4.00
2022-08-28T11:02:51.665Z,3.70
2022-08-28T11:05:26.452Z,3.90
2022-08-28T11:07:59.191Z,4.00
2022-08-28T11:12:59.683Z,3.40
2022-08-28T11:15:34.254Z,3.80
2022-08-28T11:18:17.005Z,3.40
2022-08-28T11:20:59.561Z,3.50
2022-08-28T11:23:37.488Z,3.70
2022-08-28T11:26:12.598Z,4.00
2022-08-28T11:28:47.658Z,4.20
2022-08-28T11:31:19.255Z,3.60
2022-08-28T11:34:00.150Z,3.10
2022-08-28T11:36:29.868Z,3.80
2022-08-28T11:38:58.068Z,3.80
2022-08-28T11:41:38.661Z,3.70
2022-08-28T11:44:09.444Z,3.50
2022-08-28T11:46:49.354Z,3.80
2022-08-28T11:49:26.707Z,3.50
2022-08-28T11:52:14.807Z,3.80
2022-08-28T11:55:00.226Z,3.80
2022-08-28T11:58:22.874Z,3.80
2022-08-28T12:00:56.576Z,4.10
2022-08-28T12:03:33.306Z,3.80
2022-08-28T12:06:02.505Z,3.80
2022-08-28T12:09:06.184Z,4.10
2022-08-28T12:11:39.910Z,3.90
2022-08-28T12:14:11.212Z,4.00
2022-08-28T12:17:04.344Z,4.00
2022-08-28T12:19:55.394Z,4.00
2022-08-28T12:22:39.985Z,3.60
2022-08-28T12:25:20.843Z,3.60
2022-08-28T12:27:49.698Z,4.00
2022-08-28T12:30:29.299Z,3.80
2022-08-28T12:33:27.094Z,3.60
2022-08-28T12:36:01.153Z,3.50
2022-08-28T12:38:32.007Z,4.00
2022-08-28T12:41:02.052Z,3.60
2022-08-28T12:43:36.028Z,3.90
2022-08-28T12:46:30.348Z,3.70
2022-08-28T12:49:04.883Z,3.80
2022-08-28T12:51:36.310Z,3.70
2022-08-28T12:54:08.635Z,3.50
2022-08-28T12:56:38.823Z,3.80
2022-08-28T12:59:49.498Z,4.20
2022-08-28T13:02:27.063Z,3.50
2022-08-28T13:04:57.988Z,3.70
2022-08-28T13:07:30.483Z,3.80
2022-08-28T13:10:02.014Z,3.60
2022-08-28T13:12:55.963Z,3.50
2022-08-28T13:15:43.415Z,3.50
2022-08-28T13:18:33.225Z,3.80
2022-08-28T13:21:32.522Z,3.50
2022-08-28T13:24:24.130Z,3.50
2022-08-28T13:27:07.351Z,4.00
2022-08-28T13:29:37.240Z,3.20
2022-08-28T13:32:15.907Z,3.10
2022-08-28T13:35:17.355Z,3.00
2022-08-28T13:37:49.715Z,2.80
2022-08-28T13:40:55.722Z,2.80
2022-08-28T13:43:13.369Z,2.90
2022-08-28T13:45:44.913Z,3.00
2022-08-28T13:48:24.962Z,3.10
2022-08-28T13:51:08.614Z,3.30
2022-08-28T13:53:39.951Z,2.80
2022-08-28T13:56:07.883Z,2.70
2022-08-28T13:58:35.969Z,3.20
2022-08-28T14:01:05.127Z,3.30
2022-08-28T14:03:38.581Z,2.70
2022-08-28T14:06:14.353Z,3.00
2022-08-28T14:08:45.516Z,3.40
2022-08-28T14:11:15.570Z,3.10
2022-08-28T14:13:47.061Z,3.10
2022-08-28T14:16:26.745Z,3.00
2022-08-28T14:18:55.024Z,2.80
2022-08-28T14:21:24.763Z,2.70
2022-08-28T14:23:52.940Z,3.40
2022-08-28T14:26:21.113Z,2.90
2022-08-28T14:28:49.186Z,3.10
2022-08-28T14:31:17.310Z,3.00
2022-08-28T14:33:46.574Z,2.70
2022-08-28T14:36:21.404Z,2.90
2022-08-28T14:38:54.053Z,3.00
2022-08-28T14:41:24.364Z,3.00
2022-08-28T14:43:53.737Z,3.00
2022-08-28T14:46:43.764Z,3.40
2022-08-28T14:49:15.917Z,3.10
2022-08-28T14:51:45.646Z,3.40
2022-08-28T14:54:16.385Z,2.90
2022-08-28T14:56:46.057Z,3.30
2022-08-28T14:59:24.216Z,3.10
2022-08-28T15:01:58.187Z,3.20
2022-08-28T15:04:34.459Z,3.00
2022-08-28T15:07:06.725Z,2.90
2022-08-28T15:09:38.081Z,3.40
2022-08-28T15:12:06.579Z,3.10
2022-08-28T15:14:36.018Z,2.80
2022-08-28T15:17:04.619Z,3.10
2022-08-28T15:19:33.174Z,2.90
2022-08-28T15:22:02.124Z,3.50
2022-08-28T15:24:34.452Z,3.30
2022-08-28T15:27:02.910Z,3.20
2022-08-28T15:29:31.074Z,3.10
2022-08-28T15:32:00.805Z,3.60
2022-08-28T15:34:29.113Z,3.30
2022-08-28T15:36:58.744Z,3.50
2022-08-28T15:39:47.569Z,3.60
2022-08-28T15:42:15.875Z,4.10
2022-08-28T15:44:44.590Z,3.70
2022-08-28T15:47:14.962Z,5.10
2022-08-28T15:49:48.701Z,4.60
2022-08-28T15:52:19.195Z,5.70
2022-08-28T15:54:49.635Z,8.30
2022-08-28T15:57:18.648Z,5.80
2022-08-28T15:59:49.709Z,12.00
2022-08-28T16:02:23.350Z,4.20
2022-08-28T16:04:53.409Z,4.00
2022-08-28T16:07:23.026Z,4.20
2022-08-28T16:09:51.566Z,4.20
2022-08-28T16:12:19.520Z,4.40
2022-08-28T16:14:47.586Z,3.80
2022-08-28T16:17:15.892Z,6.00
2022-08-28T16:19:45.245Z,16.10
2022-08-28T16:22:16.090Z,21.20
2022-08-28T16:24:45.986Z,20.80
2022-08-28T16:27:15.897Z,29.00
2022-08-28T16:29:45.631Z,26.20
2022-08-28T16:32:13.918Z,33.90
2022-08-28T16:34:44.788Z,64.10
2022-08-28T16:37:14.401Z,33.60
2022-08-28T16:39:53.957Z,24.10
2022-08-28T16:44:56.488Z,11.30
2022-08-28T16:47:24.541Z,8.80
2022-08-28T16:50:07.214Z,6.60
2022-08-28T16:52:36.040Z,6.00
2022-08-28T16:55:05.981Z,6.50
2022-08-28T16:57:34.097Z,5.40
2022-08-28T17:00:02.592Z,5.30
2022-08-28T17:02:33.673Z,5.20
2022-08-28T17:05:04.087Z,5.70
2022-08-28T17:07:32.115Z,6.80
2022-08-28T17:10:00.429Z,5.30
2022-08-28T17:12:28.662Z,4.90
2022-08-28T17:14:56.847Z,4.30
2022-08-28T17:17:24.843Z,4.20
2022-08-28T17:19:52.969Z,3.70
2022-08-28T17:22:32.854Z,3.80
2022-08-28T17:25:04.115Z,3.90
2022-08-28T17:27:32.329Z,3.30
2022-08-28T17:30:03.327Z,3.20
2022-08-28T17:32:32.122Z,3.70
2022-08-28T17:35:02.359Z,3.50
2022-08-28T17:37:31.887Z,4.10
2022-08-28T17:39:59.928Z,3.80
2022-08-28T17:42:28.093Z,3.60
2022-08-28T17:44:56.115Z,4.40
2022-08-28T17:47:30.735Z,4.00
2022-08-28T17:50:01.580Z,4.60
2022-08-28T17:52:32.618Z,4.50
2022-08-28T17:55:01.338Z,4.30
2022-08-28T17:57:30.964Z,4.30
2022-08-28T18:00:00.610Z,3.80
2022-08-28T18:02:29.003Z,4.70
2022-08-28T18:04:57.384Z,5.20
2022-08-28T18:07:28.136Z,6.30
2022-08-28T18:09:56.944Z,4.90
2022-08-28T18:12:25.166Z,6.10
2022-08-28T18:14:53.423Z,6.50
2022-08-28T18:17:21.904Z,6.30
2022-08-28T18:19:50.586Z,5.50
2022-08-28T18:22:18.801Z,5.60
2022-08-28T18:24:52.815Z,5.30
2022-08-28T18:27:22.483Z,5.70
2022-08-28T18:29:50.676Z,5.50
2022-08-28T18:32:19.063Z,4.80
2022-08-28T18:34:47.500Z,6.10
2022-08-28T18:37:16.518Z,5.30
2022-08-28T18:39:44.551Z,5.00
2022-08-28T18:42:12.625Z,4.60
2022-08-28T18:44:40.568Z,4.60
2022-08-28T18:47:08.666Z,4.70
2022-08-28T18:49:36.705Z,4.70
2022-08-28T18:52:04.766Z,4.80
2022-08-28T18:54:33.421Z,4.90
2022-08-28T18:57:04.458Z,4.20
2022-08-28T18:59:33.843Z,4.30
2022-08-28T19:02:03.840Z,5.40
2022-08-28T19:04:33.461Z,4.70
2022-08-28T19:07:01.439Z,5.10
2022-08-28T19:09:32.413Z,5.10
2022-08-28T19:12:02.538Z,6.30
2022-08-28T19:14:31.430Z,9.30
2022-08-28T19:17:00.062Z,7.40
2022-08-28T19:19:28.831Z,5.80
2022-08-28T19:21:57.369Z,5.20
2022-08-28T19:24:29.832Z,5.20
2022-08-28T19:26:57.810Z,4.70
2022-08-28T19:29:26.055Z,4.50
2022-08-28T19:31:54.052Z,5.00
2022-08-28T19:34:22.262Z,5.20
2022-08-28T19:36:50.289Z,5.30
2022-08-28T19:39:18.301Z,5.30
2022-08-28T19:41:46.238Z,5.40
2022-08-28T19:44:14.268Z,5.10
2022-08-28T19:46:42.392Z,4.80
2022-08-28T19:49:10.414Z,4.80
2022-08-28T19:51:39.591Z,4.60
2022-08-28T19:54:11.205Z,4.70
2022-08-28T19:56:40.008Z,5.10
2022-08-28T19:59:09.193Z,4.80
2022-08-28T20:01:41.605Z,4.80
2022-08-28T20:04:16.790Z,5.60
2022-08-28T20:06:46.127Z,4.70
2022-08-28T20:09:14.464Z,5.10
2022-08-28T20:11:45.075Z,5.00
2022-08-28T20:14:15.142Z,5.20
2022-08-28T20:16:45.667Z,5.00
2022-08-28T20:19:14.975Z,4.70
2022-08-28T20:21:45.136Z,4.90
2022-08-28T20:24:17.723Z,5.20
2022-08-28T20:26:45.880Z,5.30
2022-08-28T20:29:15.090Z,5.10
2022-08-28T20:31:47.905Z,4.90
2022-08-28T20:34:18.522Z,6.10
2022-08-28T20:36:46.615Z,5.40
2022-08-28T20:39:15.688Z,5.00
2022-08-28T20:41:46.300Z,4.80
2022-08-28T20:44:21.992Z,5.00
2022-08-28T20:46:51.019Z,5.00
2022-08-28T20:49:23.920Z,5.20
2022-08-28T20:51:58.912Z,5.10
2022-08-28T20:54:31.657Z,5.00
2022-08-28T20:57:02.881Z,4.90
2022-08-28T20:59:37.215Z,5.30
2022-08-28T21:02:18.573Z,5.30
2022-08-28T21:04:47.423Z,5.90
2022-08-28T21:07:17.740Z,5.30
2022-08-28T21:10:05.346Z,5.20
2022-08-28T21:12:37.929Z,5.50
2022-08-28T21:15:08.975Z,5.70
2022-08-28T21:17:37.089Z,5.50
2022-08-28T21:20:12.086Z,5.20
2022-08-28T21:22:41.819Z,4.50
2022-08-28T21:25:11.216Z,5.20
2022-08-28T21:27:39.689Z,6.00
2022-08-28T21:30:10.176Z,5.10
2022-08-28T21:32:38.745Z,4.90
2022-08-28T21:35:11.146Z,5.20
2022-08-28T21:37:41.291Z,4.70
2022-08-28T21:40:12.218Z,5.00
2022-08-28T21:42:40.510Z,4.60
2022-08-28T21:45:12.027Z,5.00
2022-08-28T21:47:41.857Z,5.00
2022-08-28T21:50:11.190Z,5.00
2022-08-28T21:52:40.137Z,5.20
2022-08-28T21:55:12.551Z,4.70
2022-08-28T21:57:41.207Z,5.30
2022-08-28T22:00:15.171Z,5.10
2022-08-28T22:02:43.523Z,5.70
2022-08-28T22:05:12.194Z,5.60
2022-08-28T22:07:40.570Z,4.70
2022-08-28T22:10:09.362Z,5.30
2022-08-28T22:12:37.344Z,5.20
2022-08-28T22:15:06.328Z,5.00
2022-08-28T22:17:34.360Z,5.30
2022-08-28T22:20:02.795Z,4.90
2022-08-28T22:22:49.799Z,4.70
2022-08-28T22:25:17.858Z,4.50
2022-08-28T22:27:45.928Z,4.80
2022-08-28T22:30:14.619Z,5.00
2022-08-28T22:32:43.389Z,4.80
2022-08-28T22:35:11.556Z,5.00
2022-08-28T22:37:39.666Z,4.80
2022-08-28T22:40:09.497Z,5.00
2022-08-28T22:42:41.878Z,4.80
2022-08-28T22:45:10.507Z,5.20
2022-08-28T22:47:39.751Z,4.80
2022-08-28T22:50:08.750Z,5.00
2022-08-28T22:52:37.484Z,5.00
2022-08-28T22:55:09.290Z,5.50
2022-08-28T22:57:37.366Z,4.90
2022-08-28T23:00:11.942Z,4.60
2022-08-28T23:02:42.956Z,5.10
2022-08-28T23:05:11.808Z,4.80
2022-08-28T23:07:40.338Z,5.80
2022-08-28T23:10:09.592Z,5.10
2022-08-28T23:12:38.371Z,5.80
2022-08-28T23:15:12.053Z,5.20
2022-08-28T23:20:12.583Z,4.90
2022-08-28T23:22:40.980Z,5.40
2022-08-28T23:25:13.665Z,4.90
2022-08-28T23:27:43.162Z,4.90
2022-08-28T23:30:13.525Z,5.10
2022-08-28T23:32:41.580Z,5.20
2022-08-28T23:35:12.429Z,5.20
2022-08-28T23:37:43.674Z,5.10
2022-08-28T23:40:20.545Z,5.40
2022-08-28T23:42:49.216Z,5.90
2022-08-28T23:45:18.834Z,5.20
2022-08-28T23:47:47.831Z,5.70
2022-08-28T23:50:20.844Z,4.60
2022-08-28T23:52:49.611Z,5.10
2022-08-28T23:55:19.459Z,4.90
2022-08-28T23:57:47.737Z,5.30
